Time;durP1;ratioP1;P1;durP2;ratioP2;P2;SDS_P1;SDS_P2;PMS_P1;PMS_P2;Temp;Humidity;BMP_temperature;BMP_pressure;BME280_temperature;BME280_humidity;BME280_pressure;Samples;Min_cycle;Max_cycle;Signal;HPM_P1;HPM_P2
2022/11/25 00:02:52;;;;;;;12.40;8.40;;;;;;;6.38;83.64;100022.63;10481204;28;20048;-62
2022/11/25 00:07:53;;;;;;;14.95;7.60;;;;;;;6.52;83.44;100045.50;10479779;28;20088;-62
2022/11/25 00:12:55;;;;;;;14.82;7.82;;;;;;;6.40;83.31;100022.53;10491369;28;20063;-64
2022/11/25 00:17:56;;;;;;;13.20;7.63;;;;;;;6.40;83.72;100027.81;10527920;28;20059;-62
2022/11/25 00:22:57;;;;;;;12.43;8.30;;;;;;;6.41;83.53;100026.84;10477163;28;20048;-62
2022/11/25 00:27:59;;;;;;;10.65;7.80;;;;;;;6.32;83.78;100010.66;10477882;28;20451;-62
2022/11/25 00:33:00;;;;;;;11.55;7.47;;;;;;;6.26;83.89;100011.06;10489746;28;20411;-63
2022/11/25 00:38:02;;;;;;;11.57;7.80;;;;;;;6.33;83.78;100028.19;10477463;28;20525;-63
2022/11/25 00:48:23;;;;;;;12.50;7.78;;;;;;;6.47;83.35;100031.72;10470432;28;20040;-61
2022/11/25 00:53:24;;;;;;;13.30;8.50;;;;;;;6.43;82.31;100022.31;10474648;28;20390;-62
2022/11/25 00:58:26;;;;;;;21.08;10.13;;;;;;;6.35;82.81;100031.59;10483449;28;20051;-62
2022/11/25 01:03:27;;;;;;;18.45;8.82;;;;;;;6.29;83.29;100017.94;10477728;28;20048;-62
2022/11/25 01:08:29;;;;;;;10.57;7.18;;;;;;;6.30;83.13;100027.56;10474392;28;20052;-61
2022/11/25 01:13:31;;;;;;;14.43;8.23;;;;;;;6.32;83.22;100030.94;10476500;28;20048;-62
2022/11/25 01:18:33;;;;;;;15.55;8.32;;;;;;;6.27;82.70;100025.97;10470679;28;20048;-62
2022/11/25 01:23:35;;;;;;;13.82;7.65;;;;;;;6.20;83.15;100024.69;10471540;28;20048;-62
2022/11/25 01:28:37;;;;;;;13.93;8.48;;;;;;;6.28;82.88;100040.88;10470183;28;20048;-61
2022/11/25 01:33:39;;;;;;;12.35;7.47;;;;;;;6.14;83.16;100019.78;10468611;28;20056;-62
2022/11/25 01:38:41;;;;;;;14.73;7.43;;;;;;;6.36;82.96;100041.25;10474227;28;20493;-62
2022/11/25 01:43:42;;;;;;;13.25;7.28;;;;;;;6.30;82.83;100028.41;10466845;28;20642;-62
2022/11/25 01:48:50;;;;;;;11.00;7.38;;;;;;;6.46;82.93;100033.53;10466093;28;20058;-62
2022/11/25 01:53:56;;;;;;;9.73;7.25;;;;;;;6.49;82.51;100013.97;10465613;28;20194;-61
2022/11/25 01:58:58;;;;;;;9.77;7.18;;;;;;;6.52;82.46;100027.81;10469363;28;20719;-62
2022/11/25 02:03:59;;;;;;;13.23;8.02;;;;;;;6.50;82.96;100020.94;10465678;28;20054;-62
2022/11/25 02:09:05;;;;;;;9.55;6.72;;;;;;;6.56;82.97;100028.50;10467033;28;20054;-62
2022/11/25 02:14:08;;;;;;;9.95;7.00;;;;;;;6.55;83.17;100032.06;10462567;28;20048;-63
2022/11/25 02:19:21;;;;;;;13.30;8.35;;;;;;;6.51;83.39;100028.75;10464872;28;20047;-62
2022/11/25 02:24:33;;;;;;;12.15;7.13;;;;;;;6.52;83.19;100032.28;10469638;28;20044;-61
2022/11/25 02:29:36;;;;;;;9.80;6.53;;;;;;;6.42;83.31;100026.75;10463618;28;20071;-61
2022/11/25 02:34:45;;;;;;;10.18;6.43;;;;;;;6.39;83.55;100018.19;10464196;28;20047;-62
2022/11/25 02:39:48;;;;;;;11.95;6.70;;;;;;;6.23;83.37;100011.28;10465739;28;20055;-61
2022/11/25 02:44:50;;;;;;;10.57;6.55;;;;;;;6.24;83.35;100009.47;10469055;28;20053;-63
2022/11/25 02:49:51;;;;;;;11.90;7.35;;;;;;;6.29;83.68;100010.88;10465044;28;20128;-62
2022/11/25 02:54:52;;;;;;;13.00;7.22;;;;;;;6.29;83.25;100018.78;10467844;28;20059;-62
2022/11/25 02:59:54;;;;;;;13.55;7.38;;;;;;;6.20;83.18;100006.19;10466832;28;20071;-62
2022/11/25 03:04:55;;;;;;;11.85;7.07;;;;;;;6.25;83.17;100013.81;10463009;28;20048;-61
2022/11/25 03:09:56;;;;;;;10.50;7.20;;;;;;;6.21;82.90;100013.16;10468069;28;20052;-62
2022/11/25 03:14:58;;;;;;;12.10;7.68;;;;;;;6.21;82.85;100013.16;10469800;28;20049;-62
2022/11/25 03:19:59;;;;;;;10.50;7.45;;;;;;;6.15;82.40;100009.13;10473176;28;20055;-61
2022/11/25 03:25:00;;;;;;;14.63;8.45;;;;;;;6.18;82.75;100023.94;10476912;28;20529;-61
2022/11/25 03:30:04;;;;;;;9.93;6.85;;;;;;;6.22;83.04;100024.59;10475309;28;20047;-62
2022/11/25 03:35:06;;;;;;;10.52;7.65;;;;;;;6.29;82.22;100016.16;10475424;28;20046;-62
2022/11/25 03:40:10;;;;;;;9.82;6.72;;;;;;;6.25;82.58;100009.38;10477172;28;20056;-62
2022/11/25 03:45:13;;;;;;;10.07;7.50;;;;;;;6.13;82.75;99978.47;10479294;28;20059;-61
2022/11/25 03:50:15;;;;;;;11.23;6.93;;;;;;;6.52;81.65;100019.06;10475617;28;20803;-61
2022/11/25 03:55:17;;;;;;;7.60;6.78;;;;;;;6.56;81.32;100017.91;10477096;28;20059;-61
2022/11/25 04:00:18;;;;;;;10.40;6.45;;;;;;;6.49;81.26;99996.31;10477172;28;20055;-61
2022/11/25 04:05:19;;;;;;;8.95;6.20;;;;;;;6.46;81.83;99993.88;10474410;28;20049;-60
2022/11/25 04:10:21;;;;;;;10.70;6.38;;;;;;;6.46;81.88;99996.50;10483806;28;20052;-60
2022/11/25 04:15:22;;;;;;;10.23;5.70;;;;;;;6.44;81.89;100002.84;10482502;28;20063;-61
2022/11/25 04:20:23;;;;;;;8.98;5.85;;;;;;;6.50;81.82;100008.59;10490060;28;20048;-61
2022/11/25 04:25:25;;;;;;;8.98;5.63;;;;;;;6.47;81.21;99992.94;10500463;28;20056;-63
2022/11/25 04:30:26;;;;;;;8.82;5.65;;;;;;;6.50;81.59;100013.00;10504653;28;20198;-63
2022/11/25 04:35:27;;;;;;;7.45;5.07;;;;;;;6.42;81.52;99997.66;10515745;28;20149;-61
2022/11/25 04:40:29;;;;;;;6.95;5.20;;;;;;;6.57;81.63;100014.28;10476284;28;20050;-62
2022/11/25 04:45:30;;;;;;;10.43;5.95;;;;;;;6.65;81.65;100006.69;10473004;28;20727;-62
2022/11/25 04:50:51;;;;;;;8.95;5.30;;;;;;;6.61;81.59;100005.19;10472439;28;20109;-62
2022/11/25 04:55:53;;;;;;;7.63;5.30;;;;;;;6.61;81.46;100001.72;10471608;28;20742;-61
2022/11/25 05:00:54;;;;;;;11.00;6.03;;;;;;;6.61;81.02;99999.09;10473771;28;20800;-61
2022/11/25 05:05:56;;;;;;;9.80;6.28;;;;;;;6.54;81.60;100001.28;10470192;28;20651;-62
2022/11/25 05:10:58;;;;;;;7.00;5.60;;;;;;;6.52;81.75;100000.53;10468338;28;20044;-61
2022/11/25 05:15:59;;;;;;;11.55;5.43;;;;;;;6.49;81.20;99990.19;10467349;28;20088;-61
2022/11/25 05:21:02;;;;;;;8.45;5.38;;;;;;;6.63;80.86;100013.88;10468850;28;20713;-62
2022/11/25 05:26:03;;;;;;;10.40;5.32;;;;;;;6.53;80.90;100003.09;10472363;28;20048;-61
2022/11/25 05:31:05;;;;;;;7.43;5.28;;;;;;;6.49;81.28;100004.22;10467838;28;20054;-62
2022/11/25 05:36:07;;;;;;;10.52;5.75;;;;;;;6.63;81.19;100013.03;10458071;28;20040;-62
2022/11/25 05:41:10;;;;;;;9.25;5.97;;;;;;;6.65;81.40;100001.41;10458022;28;20103;-64
2022/11/25 05:46:11;;;;;;;8.07;4.78;;;;;;;6.66;81.60;100003.06;10464248;28;20052;-62
2022/11/25 05:51:12;;;;;;;8.35;5.35;;;;;;;6.69;81.17;99997.56;10466558;28;20059;-61
2022/11/25 05:56:14;;;;;;;9.50;5.95;;;;;;;6.75;80.85;100011.34;10448922;28;20615;-62
2022/11/25 06:01:16;;;;;;;9.82;5.05;;;;;;;6.72;80.76;100010.63;10450506;28;20051;-62
2022/11/25 06:06:18;;;;;;;8.15;5.65;;;;;;;6.73;80.69;100022.03;10459264;28;20446;-61
2022/11/25 06:11:20;;;;;;;6.68;4.85;;;;;;;6.80;80.61;100028.63;10464392;28;20036;-60
2022/11/25 06:16:22;;;;;;;10.38;5.88;;;;;;;6.84;80.01;100027.44;10459932;28;20055;-60
2022/11/25 06:21:23;;;;;;;7.15;4.95;;;;;;;6.85;80.24;100030.94;10458352;28;20052;-61
2022/11/25 06:26:24;;;;;;;9.40;5.07;;;;;;;6.73;80.51;100029.97;10458630;28;20062;-60
2022/11/25 06:31:26;;;;;;;10.23;5.38;;;;;;;6.85;81.08;100055.59;10460905;28;20048;-61
2022/11/25 06:36:27;;;;;;;9.85;5.93;;;;;;;6.83;81.22;100038.13;10459979;28;20808;-67
2022/11/25 06:41:29;;;;;;;8.38;5.85;;;;;;;6.78;81.27;100038.44;10457442;28;20052;-60
2022/11/25 06:46:30;;;;;;;10.38;5.78;;;;;;;6.81;81.83;100037.38;10458914;28;20056;-64
2022/11/25 06:51:32;;;;;;;8.75;5.68;;;;;;;6.94;81.44;100061.22;10452392;28;20047;-60
2022/11/25 06:56:33;;;;;;;9.05;6.03;;;;;;;7.02;81.19;100062.38;10451541;28;20055;-62
2022/11/25 07:01:34;;;;;;;10.90;5.97;;;;;;;7.11;81.19;100071.47;10449484;28;20048;-61
2022/11/25 07:06:36;;;;;;;13.02;6.75;;;;;;;7.20;82.31;100076.13;10449747;28;20074;-61
2022/11/25 07:11:39;;;;;;;10.23;6.95;;;;;;;7.20;82.50;100059.41;10453568;28;20048;-63
2022/11/25 07:16:43;;;;;;;11.13;7.00;;;;;;;7.33;82.61;100077.94;10442909;28;20717;-61
2022/11/25 07:21:45;;;;;;;13.03;7.03;;;;;;;7.34;82.62;100072.56;10450586;28;20045;-61
2022/11/25 07:26:46;;;;;;;8.35;6.85;;;;;;;7.38;83.23;100071.34;10449893;28;20048;-61
2022/11/25 07:31:47;;;;;;;10.38;6.70;;;;;;;7.44;83.16;100078.88;10450440;28;20059;-62
2022/11/25 07:36:49;;;;;;;9.20;7.05;;;;;;;7.62;83.57;100091.78;10444128;28;20117;-63
2022/11/25 07:41:52;;;;;;;10.30;5.82;;;;;;;7.70;82.40;100084.16;10449921;28;20068;-60
2022/11/25 07:46:54;;;;;;;10.93;6.00;;;;;;;7.67;82.27;100084.38;10451276;28;20063;-61
2022/11/25 07:52:01;;;;;;;13.95;5.68;;;;;;;7.73;81.63;100088.38;10448333;28;20135;-61
2022/11/25 07:57:03;;;;;;;9.95;5.75;;;;;;;7.71;81.15;100096.41;10448249;28;20056;-60
2022/11/25 08:02:04;;;;;;;11.75;5.55;;;;;;;7.81;81.64;100112.53;10443307;28;20048;-60
2022/11/25 08:07:06;;;;;;;7.88;5.72;;;;;;;7.84;82.11;100109.66;10453716;28;20056;-62
2022/11/25 08:12:07;;;;;;;10.32;5.63;;;;;;;7.95;81.74;100116.84;10456088;28;20052;-60
2022/11/25 08:17:09;;;;;;;14.13;6.00;;;;;;;7.96;82.36;100122.03;10450263;28;20197;-61
2022/11/25 08:22:10;;;;;;;9.10;6.78;;;;;;;7.95;82.68;100119.50;10451924;28;20059;-61
2022/11/25 08:27:11;;;;;;;9.60;5.90;;;;;;;7.94;82.67;100133.69;10450085;28;20056;-61
2022/11/25 08:32:13;;;;;;;8.20;5.60;;;;;;;7.95;82.73;100120.31;10461302;28;20052;-60
2022/11/25 08:37:14;;;;;;;11.27;7.38;;;;;;;7.89;83.34;100119.94;10462196;28;20062;-61
2022/11/25 08:42:15;;;;;;;10.35;6.55;;;;;;;7.95;83.08;100128.28;10462795;28;20048;-61
2022/11/25 08:47:17;;;;;;;8.57;5.70;;;;;;;8.00;82.74;100135.94;10457415;28;20056;-61
2022/11/25 08:52:20;;;;;;;11.25;5.18;;;;;;;8.12;82.55;100131.50;10453113;28;20087;-59
2022/11/25 08:57:21;;;;;;;10.13;5.90;;;;;;;8.02;82.30;100131.34;10452456;28;20052;-61
2022/11/25 09:02:23;;;;;;;9.43;5.25;;;;;;;8.05;82.64;100131.13;10451254;28;20048;-60
2022/11/25 09:07:25;;;;;;;9.98;6.78;;;;;;;8.04;83.04;100125.94;10453584;28;20636;-62
2022/11/25 09:12:31;;;;;;;9.40;5.82;;;;;;;8.08;82.03;100130.91;10449082;28;21026;-60
2022/11/25 09:17:36;;;;;;;9.25;4.90;;;;;;;8.14;82.23;100151.66;10450469;28;20048;-61
2022/11/25 09:22:37;;;;;;;;;;;;;;;8.05;82.91;100167.41;10449522;28;20113;-59
2022/11/25 09:27:38;;;;;;;16.35;7.10;;;;;;;8.07;83.01;100182.22;10450652;28;19924;-63
2022/11/25 09:32:40;;;;;;;11.38;5.15;;;;;;;8.17;83.00;100170.94;10453103;28;20074;-62
2022/11/25 09:37:41;;;;;;;8.80;5.97;;;;;;;8.00;82.74;100170.38;10444618;28;20060;-61
2022/11/25 09:48:18;;;;;;;8.82;5.22;;;;;;;8.17;83.31;100193.03;10444964;28;20051;-61
2022/11/25 09:53:41;;;;;;;10.35;5.82;;;;;;;8.40;83.23;100190.53;10449545;28;20177;-60
2022/11/25 09:58:52;;;;;;;8.90;6.47;;;;;;;8.54;83.02;100192.22;10439988;28;20056;-61
2022/11/25 10:04:01;;;;;;;9.55;6.28;;;;;;;8.21;83.29;100193.66;10443824;28;20043;-61
2022/11/25 10:09:27;;;;;;;12.85;6.53;;;;;;;8.14;83.57;100191.44;10449186;28;20040;-60
2022/11/25 10:14:45;;;;;;;8.98;5.95;;;;;;;8.41;82.66;100185.13;10450015;28;20668;-60
2022/11/25 10:19:57;;;;;;;10.60;5.65;;;;;;;8.70;81.71;100210.53;10445977;28;20071;-59
2022/11/25 10:25:19;;;;;;;7.88;5.90;;;;;;;11.13;74.82;100190.66;10448618;28;20645;-60
2022/11/25 10:30:37;;;;;;;9.75;6.07;;;;;;;11.51;68.00;100199.88;10446887;28;20047;-61
2022/11/25 10:35:44;;;;;;;8.10;5.78;;;;;;;11.95;67.48;100199.72;10444316;28;20059;-61
2022/11/25 10:40:49;;;;;;;11.50;6.65;;;;;;;15.48;54.00;100200.50;10446138;28;20049;-61
2022/11/25 10:46:14;;;;;;;6.85;4.95;;;;;;;14.57;55.59;100215.72;10445853;28;21242;-60
2022/11/25 10:51:34;;;;;;;;;;;;;;;13.59;59.64;100216.13;10447073;28;20048;-61
2022/11/25 10:57:02;;;;;;;9.32;6.20;;;;;;;12.11;64.98;100215.25;10444840;28;19970;-60
2022/11/25 11:02:22;;;;;;;7.03;5.80;;;;;;;11.45;67.53;100213.72;10444530;28;20075;-65
2022/11/25 11:07:27;;;;;;;10.10;5.88;;;;;;;11.84;66.66;100227.28;10443958;28;20059;-60
2022/11/25 11:12:28;;;;;;;8.70;7.80;;;;;;;13.13;62.93;100235.56;10445710;28;20056;-60
2022/11/25 11:17:34;;;;;;;10.50;6.72;;;;;;;16.50;52.73;100230.25;10444883;28;20059;-60
2022/11/25 11:22:47;;;;;;;6.75;5.63;;;;;;;19.54;44.48;100234.88;10444454;28;20462;-62
2022/11/25 11:27:48;;;;;;;9.45;5.50;;;;;;;21.45;39.07;100224.19;10444501;28;20059;-61
2022/11/25 11:32:57;;;;;;;8.48;5.40;;;;;;;18.23;45.76;100233.84;10442245;28;20052;-60
2022/11/25 11:38:05;;;;;;;9.65;5.80;;;;;;;15.14;53.45;100239.59;10443862;28;20044;-62
2022/11/25 11:43:44;;;;;;;9.05;6.45;;;;;;;13.12;60.99;100234.72;10453730;28;20047;-61
2022/11/25 11:48:53;;;;;;;8.30;5.68;;;;;;;12.08;65.53;100239.53;10445702;28;20858;-60
2022/11/25 11:54:07;;;;;;;6.13;5.40;;;;;;;11.35;68.93;100236.81;10468226;28;20079;-60
2022/11/25 11:59:45;;;;;;;7.97;6.73;;;;;;;11.02;71.56;100234.19;10445893;28;20442;-60
2022/11/25 12:05:13;;;;;;;8.90;5.88;;;;;;;11.13;71.07;100249.28;10446250;28;20044;-62
2022/11/25 12:10:14;;;;;;;8.45;6.35;;;;;;;11.83;68.05;100253.13;10453888;28;20441;-58
2022/11/25 12:15:38;;;;;;;9.93;6.15;;;;;;;13.95;60.55;100247.56;10455202;28;20056;-63
2022/11/25 12:21:04;;;;;;;7.57;5.60;;;;;;;13.77;61.22;100264.38;10470489;28;20135;-60
2022/11/25 12:26:16;;;;;;;10.30;5.20;;;;;;;18.80;46.71;100261.56;10448852;28;20052;-61
2022/11/25 12:31:29;;;;;;;6.10;5.30;;;;;;;22.76;38.07;100257.97;10452482;28;20091;-60
2022/11/25 12:36:37;;;;;;;8.15;4.90;;;;;;;24.92;34.71;100252.16;10465513;28;20631;-61
2022/11/25 12:41:45;;;;;;;7.22;5.20;;;;;;;24.60;33.94;100258.38;10494628;28;20051;-62
2022/11/25 12:46:53;;;;;;;6.95;4.82;;;;;;;24.76;32.73;100272.56;10502644;28;20036;-62
2022/11/25 12:52:06;;;;;;;6.13;4.57;;;;;;;21.07;39.00;100278.59;10475778;28;20063;-64
2022/11/25 12:57:39;;;;;;;7.97;4.47;;;;;;;19.96;41.73;100284.81;10449491;28;20094;-60
2022/11/25 13:03:03;;;;;;;10.95;4.15;;;;;;;22.84;37.48;100293.03;10447050;28;20075;-60
2022/11/25 13:08:32;;;;;;;7.75;5.00;;;;;;;24.79;33.59;100294.72;10445768;28;20059;-60
2022/11/25 13:14:06;;;;;;;7.00;4.68;;;;;;;21.51;38.03;100304.69;10448722;28;20052;-60
2022/11/25 13:19:12;;;;;;;9.35;4.88;;;;;;;19.99;41.43;100299.81;10455960;28;20037;-60
2022/11/25 13:24:29;;;;;;;9.38;3.90;;;;;;;17.31;47.75;100325.63;10451316;28;20091;-61
2022/11/25 13:29:30;;;;;;;7.28;5.28;;;;;;;15.06;54.35;100327.13;10456729;28;20053;-60
2022/11/25 13:34:34;;;;;;;6.68;5.00;;;;;;;14.08;58.68;100338.22;10454430;28;20112;-60
2022/11/25 13:39:37;;;;;;;6.80;4.53;;;;;;;13.94;59.80;100347.56;10448662;28;20807;-61
2022/11/25 13:44:51;;;;;;;7.70;5.10;;;;;;;13.63;61.48;100355.78;10444425;28;20055;-62
2022/11/25 13:50:21;;;;;;;6.70;4.60;;;;;;;13.16;63.19;100358.22;10445560;28;20049;-61
2022/11/25 13:55:38;;;;;;;15.82;6.80;;;;;;;13.04;64.74;100360.97;10450856;28;20045;-60
2022/11/25 14:01:00;;;;;;;7.40;5.00;;;;;;;12.98;65.31;100374.91;10452605;28;20048;-61
2022/11/25 14:06:08;;;;;;;10.55;5.43;;;;;;;12.83;65.07;100369.06;10446962;28;20054;-61
2022/11/25 14:11:10;;;;;;;8.65;6.00;;;;;;;12.57;66.83;100389.25;10447883;28;20051;-61
2022/11/25 14:16:20;;;;;;;8.10;5.85;;;;;;;12.17;68.41;100388.16;10446304;28;20127;-60
2022/11/25 14:21:51;;;;;;;9.57;6.10;;;;;;;11.98;70.07;100388.84;10447528;28;20044;-60
2022/11/25 14:26:56;;;;;;;6.72;5.50;;;;;;;11.70;71.33;100392.97;10448188;28;20112;-60
2022/11/25 14:32:03;;;;;;;12.00;6.40;;;;;;;11.47;71.94;100390.41;10448792;28;20052;-60
2022/11/25 14:37:28;;;;;;;9.20;6.40;;;;;;;11.47;72.94;100396.56;10449739;28;20135;-60
2022/11/25 14:42:37;;;;;;;9.90;5.70;;;;;;;11.35;73.79;100407.38;10452140;28;20433;-61
2022/11/25 14:47:38;;;;;;;10.93;6.50;;;;;;;11.43;73.24;100421.78;10449641;28;20059;-62
2022/11/25 14:52:46;;;;;;;8.73;5.30;;;;;;;11.34;73.59;100422.53;10452538;28;20056;-60
2022/11/25 14:57:47;;;;;;;6.72;4.75;;;;;;;11.19;74.36;100429.94;10453356;28;20039;-60
2022/11/25 15:02:59;;;;;;;10.48;5.95;;;;;;;11.22;74.30;100432.34;10451478;28;20041;-61
2022/11/25 15:08:02;;;;;;;7.07;4.97;;;;;;;11.22;74.79;100439.50;10450007;28;20079;-60
2022/11/25 15:13:43;;;;;;;6.93;4.20;;;;;;;11.13;74.87;100433.09;10449016;28;20040;-61
2022/11/25 15:18:51;;;;;;;10.43;5.63;;;;;;;11.03;75.32;100443.63;10453080;28;20039;-60
2022/11/25 15:23:53;;;;;;;8.48;5.65;;;;;;;11.00;75.82;100445.69;10453981;28;20075;-60
2022/11/25 15:28:56;;;;;;;12.18;5.93;;;;;;;10.99;75.84;100450.19;10458097;28;20047;-60
2022/11/25 15:34:02;;;;;;;9.25;5.13;;;;;;;10.98;76.07;100455.63;10456639;28;20059;-61
2022/11/25 15:39:17;;;;;;;9.55;5.10;;;;;;;10.89;76.12;100455.38;10461667;28;20142;-61
2022/11/25 15:44:24;;;;;;;13.30;4.70;;;;;;;10.79;76.66;100462.38;10457551;28;20056;-61
2022/11/25 15:49:26;;;;;;;8.35;4.65;;;;;;;10.64;77.42;100471.56;10461889;28;20036;-60
2022/11/25 15:54:32;;;;;;;6.15;4.95;;;;;;;10.63;78.08;100480.50;10460502;28;20040;-61
2022/11/25 15:59:39;;;;;;;10.57;5.30;;;;;;;10.51;78.73;100487.63;10461560;28;20784;-62
2022/11/25 16:04:41;;;;;;;7.97;5.40;;;;;;;10.45;79.31;100499.59;10459900;28;21050;-63
2022/11/25 16:09:50;;;;;;;8.93;5.30;;;;;;;10.27;80.63;100500.00;10454744;28;20059;-61
2022/11/25 16:14:51;;;;;;;7.50;5.15;;;;;;;10.34;80.47;100496.91;10456721;28;20086;-61
2022/11/25 16:19:52;;;;;;;8.07;5.82;;;;;;;10.36;80.60;100516.28;10458586;28;20052;-61
2022/11/25 16:24:54;;;;;;;10.70;5.95;;;;;;;10.28;81.03;100519.47;10454906;28;20107;-61
2022/11/25 16:30:05;;;;;;;7.05;5.03;;;;;;;10.11;81.04;100502.09;10455576;28;20054;-62
2022/11/25 16:35:20;;;;;;;9.95;5.60;;;;;;;10.24;81.44;100529.50;10460976;28;20052;-60
2022/11/25 16:40:23;;;;;;;9.63;5.80;;;;;;;10.31;81.38;100540.50;10458816;28;20087;-59
2022/11/25 16:45:26;;;;;;;9.88;5.80;;;;;;;10.22;81.33;100533.22;10453492;28;20048;-61
2022/11/25 16:50:28;;;;;;;10.13;5.40;;;;;;;10.20;81.39;100533.34;10442288;28;20053;-59
2022/11/25 16:55:29;;;;;;;7.80;5.43;;;;;;;10.13;81.53;100556.03;10455417;28;20055;-60
2022/11/25 17:00:30;;;;;;;9.13;5.40;;;;;;;9.91;81.97;100539.00;10450546;28;20125;-61
2022/11/25 17:05:32;;;;;;;10.05;5.40;;;;;;;9.89;82.50;100562.22;10453227;28;20064;-60
2022/11/25 17:10:34;;;;;;;11.27;6.35;;;;;;;9.93;82.75;100567.31;10446263;28;20049;-61
2022/11/25 17:15:36;;;;;;;8.30;5.25;;;;;;;10.04;82.36;100580.66;10454092;28;20110;-60
2022/11/25 17:20:38;;;;;;;9.07;6.28;;;;;;;10.09;82.18;100594.47;10462586;28;20145;-61
2022/11/25 17:25:44;;;;;;;9.20;5.50;;;;;;;10.13;81.69;100593.28;10450119;28;20055;-61
2022/11/25 17:30:46;;;;;;;9.70;5.93;;;;;;;10.17;81.65;100594.75;10446680;28;20062;-60
2022/11/25 17:35:47;;;;;;;10.68;6.43;;;;;;;10.16;81.34;100589.53;10448650;28;20059;-59
2022/11/25 17:40:49;;;;;;;12.65;8.27;;;;;;;10.30;81.03;100607.16;10447903;28;20528;-60
2022/11/25 17:45:50;;;;;;;9.73;7.85;;;;;;;10.30;81.11;100612.47;10447669;28;20138;-60
2022/11/25 17:50:52;;;;;;;12.27;7.47;;;;;;;10.23;81.30;100615.59;10446065;28;20056;-59
2022/11/25 17:55:53;;;;;;;11.52;7.72;;;;;;;10.35;80.74;100637.81;10445440;28;20063;-59
2022/11/25 18:00:55;;;;;;;12.77;7.53;;;;;;;10.27;80.85;100635.69;10450960;28;20056;-60
2022/11/25 18:05:56;;;;;;;10.85;6.32;;;;;;;10.36;80.89;100659.97;10452672;28;20060;-60
2022/11/25 18:11:01;;;;;;;12.68;6.32;;;;;;;10.43;80.83;100661.19;10448063;28;20066;-61
2022/11/25 18:16:03;;;;;;;11.68;6.35;;;;;;;10.40;80.59;100664.09;10449553;28;20666;-60
2022/11/25 18:21:04;;;;;;;14.80;6.60;;;;;;;10.27;80.84;100646.34;10447486;28;20690;-60
2022/11/25 18:26:10;;;;;;;9.88;6.78;;;;;;;10.32;81.29;100674.44;10448663;28;20052;-60
2022/11/25 18:31:11;;;;;;;12.18;7.75;;;;;;;10.35;81.68;100671.56;10451891;28;20896;-61
2022/11/25 18:36:13;;;;;;;11.15;7.40;;;;;;;10.42;81.93;100696.78;10446100;28;20148;-60
2022/11/25 18:41:20;;;;;;;10.63;7.88;;;;;;;10.31;81.52;100689.53;10445839;28;20056;-62
2022/11/25 18:46:21;;;;;;;16.55;9.13;;;;;;;10.35;82.00;100700.84;10447220;28;20047;-61
2022/11/25 18:51:23;;;;;;;11.60;9.05;;;;;;;10.35;82.27;100703.50;10448095;28;20040;-60
2022/11/25 18:56:24;;;;;;;15.98;8.68;;;;;;;10.34;82.33;100715.09;10447114;28;20060;-60
2022/11/25 19:01:26;;;;;;;12.38;7.88;;;;;;;10.26;82.23;100727.09;10443453;28;21028;-61
2022/11/25 19:06:28;;;;;;;13.82;8.10;;;;;;;10.17;83.03;100745.53;10446693;28;20491;-62
2022/11/25 19:11:35;;;;;;;9.88;7.45;;;;;;;10.17;83.08;100745.53;10441474;28;20048;-62
2022/11/25 19:16:37;;;;;;;12.60;8.38;;;;;;;10.23;82.89;100761.91;10445172;28;20061;-61
2022/11/25 19:21:38;;;;;;;12.40;7.45;;;;;;;10.33;82.88;100778.13;10447381;28;20206;-60
2022/11/25 19:26:44;;;;;;;12.50;7.05;;;;;;;10.30;82.64;100788.94;10449503;28;20582;-61
2022/11/25 19:31:48;;;;;;;10.93;6.60;;;;;;;10.29;82.42;100791.72;10446119;28;20053;-63
2022/11/25 19:36:49;;;;;;;10.63;6.18;;;;;;;10.37;82.57;100805.34;10443586;28;20638;-59
2022/11/25 19:41:51;;;;;;;14.43;7.35;;;;;;;10.37;83.50;100808.00;10443683;28;20196;-60
2022/11/25 19:46:53;;;;;;;13.38;7.28;;;;;;;10.38;83.97;100815.06;10446450;28;20056;-59
2022/11/25 19:52:18;;;;;;;12.68;6.82;;;;;;;10.39;84.10;100822.09;10447613;28;20052;-60
2022/11/25 19:57:22;;;;;;;10.57;6.93;;;;;;;10.36;85.02;100830.28;10444946;28;20137;-62
2022/11/25 20:02:25;;;;;;;13.07;7.47;;;;;;;10.29;85.07;100823.66;10455937;28;20585;-64
2022/11/25 20:07:28;;;;;;;10.18;6.57;;;;;;;10.20;85.24;100831.31;10452477;28;20055;-62
2022/11/25 20:12:30;;;;;;;14.52;8.98;;;;;;;10.29;85.63;100839.63;10454315;28;20137;-63
2022/11/25 20:17:33;;;;;;;15.05;10.65;;;;;;;10.29;85.06;100858.25;10455677;28;20662;-61
2022/11/25 20:22:38;;;;;;;15.80;9.83;;;;;;;10.23;85.54;100863.03;10455455;28;20605;-61
2022/11/25 20:27:39;;;;;;;;;;;;;;;10.25;85.40;100866.44;10455935;28;20062;-63
2022/11/25 20:32:41;;;;;;;10.63;8.00;;;;;;;10.15;84.46;100870.69;10449261;28;20113;-59
2022/11/25 20:37:59;;;;;;;13.45;7.35;;;;;;;10.13;84.63;100877.91;10452929;28;20641;-62
2022/11/25 20:43:00;;;;;;;10.35;6.32;;;;;;;10.11;84.71;100879.00;10443159;28;20067;-61
2022/11/25 20:48:02;;;;;;;12.80;7.88;;;;;;;9.97;84.47;100894.09;10447139;28;21226;-60
2022/11/25 20:53:04;;;;;;;11.07;6.95;;;;;;;9.97;84.61;100909.16;10453055;28;20047;-58
2022/11/25 20:58:19;;;;;;;15.60;8.32;;;;;;;9.90;85.09;100920.22;10450276;28;20739;-62
2022/11/25 21:03:20;;;;;;;14.88;8.85;;;;;;;9.86;85.60;100918.75;10450107;28;20055;-60
2022/11/25 21:08:24;;;;;;;10.07;7.57;;;;;;;9.82;85.56;100922.56;10451267;28;20074;-60
2022/11/25 21:13:28;;;;;;;13.33;7.47;;;;;;;9.68;86.21;100941.22;10448699;28;20688;-59
2022/11/25 21:18:29;;;;;;;14.60;8.15;;;;;;;9.58;86.37;100940.09;10453397;28;20055;-62
2022/11/25 21:23:33;;;;;;;12.20;7.45;;;;;;;9.48;87.05;100951.34;10456776;28;20178;-61
2022/11/25 21:28:40;;;;;;;14.60;7.75;;;;;;;9.44;86.44;100954.31;10456664;28;20061;-61
2022/11/25 21:33:43;;;;;;;7.93;6.28;;;;;;;9.15;86.97;100923.34;10461091;28;20124;-59
2022/11/25 21:38:46;;;;;;;11.23;5.68;;;;;;;9.28;86.88;100954.44;10452423;28;20079;-59
2022/11/25 21:43:48;;;;;;;13.32;6.78;;;;;;;9.10;87.20;100967.09;10450413;28;20124;-59
2022/11/25 21:48:50;;;;;;;9.93;6.22;;;;;;;8.99;87.37;100967.75;10445678;28;20048;-60
2022/11/25 21:53:52;;;;;;;10.65;5.97;;;;;;;8.89;88.07;100975.44;10448565;28;20052;-60
2022/11/25 21:58:55;;;;;;;11.13;6.63;;;;;;;8.93;87.74;100976.09;10448998;28;20045;-60
2022/11/25 22:03:57;;;;;;;12.30;6.40;;;;;;;8.91;87.73;100975.34;10447472;28;20321;-60
2022/11/25 22:08:58;;;;;;;10.55;6.03;;;;;;;9.01;87.75;100984.47;10447760;28;20275;-61
2022/11/25 22:14:03;;;;;;;11.70;7.03;;;;;;;9.05;86.87;100991.25;10442928;28;20400;-60
2022/11/25 22:19:05;;;;;;;10.88;6.85;;;;;;;8.95;86.95;100988.34;10445774;28;20057;-60
2022/11/25 22:24:17;;;;;;;13.73;6.82;;;;;;;8.91;86.61;100983.31;10446163;28;20082;-60
2022/11/25 22:29:22;;;;;;;13.00;6.43;;;;;;;8.91;86.97;101007.22;10448811;28;20117;-61
2022/11/25 22:34:24;;;;;;;10.82;6.65;;;;;;;8.82;87.29;101009.47;10448388;28;20207;-60
2022/11/25 22:39:26;;;;;;;13.25;7.45;;;;;;;8.75;87.45;101021.44;10449304;28;20052;-60
2022/11/25 22:44:45;;;;;;;16.30;7.55;;;;;;;8.64;87.18;101018.56;10441447;28;20497;-61
2022/11/25 22:49:48;;;;;;;8.32;5.65;;;;;;;8.46;87.44;101015.22;10445158;28;20167;-61
2022/11/25 22:54:49;;;;;;;12.60;5.55;;;;;;;8.58;87.24;101042.81;10455262;28;20419;-62
2022/11/25 22:59:51;;;;;;;11.25;5.60;;;;;;;8.55;86.95;101043.00;10469552;28;20055;-62
2022/11/25 23:04:54;;;;;;;12.20;5.22;;;;;;;8.57;86.69;101044.63;10465738;28;20043;-60
2022/11/25 23:09:56;;;;;;;10.93;6.55;;;;;;;8.60;86.42;101049.75;10464176;28;20992;-61
2022/11/25 23:14:57;;;;;;;11.57;6.53;;;;;;;8.55;86.24;101045.66;10461701;28;20052;-61
2022/11/25 23:19:58;;;;;;;9.52;6.05;;;;;;;8.48;86.65;101050.44;10466977;28;20566;-61
2022/11/25 23:24:59;;;;;;;11.52;6.78;;;;;;;8.54;86.13;101063.38;10468064;28;21018;-60
2022/11/25 23:30:01;;;;;;;9.90;6.38;;;;;;;8.51;85.88;101068.00;10470494;28;25080;-60
2022/11/25 23:35:03;;;;;;;12.85;6.35;;;;;;;8.31;86.00;101060.22;10465905;28;20051;-59
2022/11/25 23:40:12;;;;;;;9.70;4.68;;;;;;;8.37;86.24;101074.94;10474933;28;20074;-59